createdAt,value
2023-06-22T00:01:25.611Z,23.10
2023-06-22T00:03:52.431Z,23.00
2023-06-22T00:06:19.370Z,23.00
2023-06-22T00:08:46.088Z,22.90
2023-06-22T00:11:12.841Z,23.10
2023-06-22T00:13:40.222Z,23.30
2023-06-22T00:16:07.008Z,23.10
2023-06-22T00:18:33.808Z,22.90
2023-06-22T00:21:01.269Z,23.00
2023-06-22T00:23:28.037Z,23.10
2023-06-22T00:25:54.913Z,23.10
2023-06-22T00:28:21.721Z,23.10
2023-06-22T00:30:50.471Z,22.90
2023-06-22T00:33:17.763Z,22.80
2023-06-22T00:35:45.046Z,22.70
2023-06-22T00:38:12.553Z,22.70
2023-06-22T00:40:39.723Z,22.70
2023-06-22T00:43:07.009Z,22.60
2023-06-22T00:45:34.049Z,22.50
2023-06-22T00:48:01.577Z,22.60
2023-06-22T00:50:36.509Z,22.60
2023-06-22T00:53:12.653Z,22.70
2023-06-22T00:55:44.610Z,22.70
2023-06-22T00:58:12.619Z,22.30
2023-06-22T01:00:43.340Z,22.20
2023-06-22T01:03:11.180Z,22.40
2023-06-22T01:05:39.441Z,22.60
2023-06-22T01:08:21.002Z,22.60
2023-06-22T01:10:57.164Z,22.40
2023-06-22T01:13:57.718Z,22.40
2023-06-22T01:16:42.353Z,22.40
2023-06-22T01:19:23.916Z,22.10
2023-06-22T01:21:52.481Z,22.30
2023-06-22T01:24:25.405Z,22.30
2023-06-22T01:27:15.337Z,21.70
2023-06-22T01:29:43.913Z,21.80
2023-06-22T01:32:12.488Z,21.80
2023-06-22T01:34:41.315Z,21.90
2023-06-22T01:37:09.407Z,22.10
2023-06-22T01:39:37.272Z,22.10
2023-06-22T01:42:06.166Z,22.20
2023-06-22T01:44:33.767Z,22.10
2023-06-22T01:47:00.940Z,21.90
2023-06-22T01:49:28.392Z,21.70
2023-06-22T01:51:55.474Z,21.60
2023-06-22T01:54:22.323Z,21.70
2023-06-22T01:56:49.176Z,21.90
2023-06-22T01:59:35.579Z,21.80
2023-06-22T02:02:07.353Z,21.50
2023-06-22T02:04:48.931Z,21.70
2023-06-22T02:07:18.292Z,21.60
2023-06-22T02:09:47.908Z,21.60
2023-06-22T02:12:21.585Z,21.60
2023-06-22T02:14:48.918Z,21.40
2023-06-22T02:17:16.040Z,21.30
2023-06-22T02:19:43.057Z,21.40
2023-06-22T02:22:10.046Z,21.50
2023-06-22T02:24:36.774Z,21.50
2023-06-22T02:27:03.671Z,21.20
2023-06-22T02:29:31.289Z,21.00
2023-06-22T02:31:58.097Z,21.10
2023-06-22T02:34:25.211Z,21.20
2023-06-22T02:36:52.789Z,21.40
2023-06-22T02:39:26.801Z,21.40
2023-06-22T02:41:55.123Z,21.10
2023-06-22T02:44:22.496Z,21.10
2023-06-22T02:46:49.911Z,21.20
2023-06-22T02:49:16.828Z,21.20
2023-06-22T02:51:47.644Z,21.00
2023-06-22T02:54:14.472Z,20.70
2023-06-22T02:56:41.897Z,20.80
2023-06-22T02:59:08.724Z,20.90
2023-06-22T03:01:41.548Z,21.00
2023-06-22T03:04:10.183Z,20.90
2023-06-22T03:06:37.335Z,20.90
2023-06-22T03:09:05.824Z,20.80
2023-06-22T03:11:33.550Z,20.70
2023-06-22T03:14:01.880Z,20.80
2023-06-22T03:16:29.024Z,21.10
2023-06-22T03:18:55.918Z,21.20
2023-06-22T03:21:31.067Z,20.90
2023-06-22T03:23:57.791Z,21.10
2023-06-22T03:26:27.836Z,20.80
2023-06-22T03:28:54.697Z,21.00
2023-06-22T03:31:23.330Z,20.80
2023-06-22T03:33:51.278Z,20.40
2023-06-22T03:36:21.978Z,20.40
2023-06-22T03:38:51.278Z,20.50
2023-06-22T03:41:18.005Z,20.40
2023-06-22T03:43:44.829Z,20.40
2023-06-22T03:46:11.712Z,20.50
2023-06-22T03:48:39.240Z,20.60
2023-06-22T03:51:06.029Z,20.70
2023-06-22T03:53:32.873Z,20.60
2023-06-22T03:55:59.621Z,20.50
2023-06-22T03:58:26.378Z,20.60
2023-06-22T04:00:53.967Z,20.60
2023-06-22T04:03:21.204Z,20.50
2023-06-22T04:05:49.006Z,20.20
2023-06-22T04:08:16.140Z,20.40
2023-06-22T04:10:43.180Z,20.60
2023-06-22T04:13:10.096Z,20.50
2023-06-22T04:15:36.871Z,20.60
2023-06-22T04:18:03.959Z,20.80
2023-06-22T04:20:33.672Z,21.20
2023-06-22T04:23:00.670Z,21.30
2023-06-22T04:25:28.565Z,21.40
2023-06-22T04:27:55.390Z,21.60
2023-06-22T04:30:22.254Z,21.80
2023-06-22T04:32:58.880Z,21.90
2023-06-22T04:35:26.997Z,22.40
2023-06-22T04:37:57.941Z,22.80
2023-06-22T04:40:24.783Z,23.10
2023-06-22T04:42:54.827Z,23.20
2023-06-22T04:45:22.381Z,23.30
2023-06-22T04:47:49.602Z,23.70
2023-06-22T04:50:16.654Z,23.20
2023-06-22T04:52:43.468Z,23.20
2023-06-22T04:55:10.295Z,23.50
2023-06-22T04:57:40.314Z,23.90
2023-06-22T05:00:13.993Z,23.10
2023-06-22T05:02:41.787Z,23.50
2023-06-22T05:05:09.571Z,23.90
2023-06-22T05:07:36.695Z,24.10
2023-06-22T05:10:04.588Z,23.90
2023-06-22T05:12:34.379Z,24.00
2023-06-22T05:15:02.640Z,24.00
2023-06-22T05:17:29.585Z,24.10
2023-06-22T05:19:56.791Z,24.20
2023-06-22T05:22:23.469Z,24.00
2023-06-22T05:24:51.243Z,24.30
2023-06-22T05:27:18.084Z,24.10
2023-06-22T05:29:44.821Z,24.50
2023-06-22T05:32:12.604Z,24.30
2023-06-22T05:34:40.056Z,24.70
2023-06-22T05:37:10.666Z,24.90
2023-06-22T05:39:38.993Z,24.90
2023-06-22T05:42:10.289Z,23.90
2023-06-22T05:44:41.781Z,23.40
2023-06-22T05:47:08.612Z,24.00
2023-06-22T05:49:35.337Z,22.80
2023-06-22T05:52:03.298Z,23.60
2023-06-22T05:54:30.056Z,22.40
2023-06-22T05:56:56.949Z,23.50
2023-06-22T05:59:23.737Z,23.70
2023-06-22T06:01:51.571Z,23.20
2023-06-22T06:04:19.584Z,23.80
2023-06-22T06:06:48.129Z,23.90
2023-06-22T06:09:18.176Z,23.70
2023-06-22T06:11:45.127Z,24.10
2023-06-22T06:14:11.828Z,24.30
2023-06-22T06:16:38.640Z,24.20
2023-06-22T06:19:05.491Z,24.50
2023-06-22T06:21:32.254Z,24.80
2023-06-22T06:23:59.720Z,24.10
2023-06-22T06:26:30.587Z,23.70
2023-06-22T06:28:59.561Z,24.40
2023-06-22T06:31:28.769Z,24.60
2023-06-22T06:33:56.240Z,24.20
2023-06-22T06:36:23.007Z,23.80
2023-06-22T06:38:49.861Z,23.70
2023-06-22T06:41:17.384Z,24.50
2023-06-22T06:43:44.517Z,25.70
2023-06-22T06:46:11.606Z,25.80
2023-06-22T06:48:38.459Z,25.90
2023-06-22T06:51:05.365Z,24.90
2023-06-22T06:53:32.220Z,24.20
2023-06-22T06:55:59.149Z,24.70
2023-06-22T06:58:25.901Z,23.90
2023-06-22T07:00:52.636Z,25.50
2023-06-22T07:03:20.688Z,25.20
2023-06-22T07:05:47.464Z,25.40
2023-06-22T07:08:14.182Z,26.10
2023-06-22T07:10:40.938Z,26.50
2023-06-22T07:13:07.663Z,25.80
2023-06-22T07:15:34.423Z,24.60
2023-06-22T07:18:01.230Z,25.10
2023-06-22T07:20:28.309Z,25.80
2023-06-22T07:22:55.282Z,25.40
2023-06-22T07:25:22.488Z,25.20
2023-06-22T07:28:04.265Z,25.30
2023-06-22T07:30:32.480Z,25.20
2023-06-22T07:33:05.233Z,24.50
2023-06-22T07:35:34.428Z,24.90
2023-06-22T07:38:05.137Z,25.50
2023-06-22T07:40:33.133Z,25.40
2023-06-22T07:43:00.195Z,25.50
2023-06-22T07:45:27.168Z,26.20
2023-06-22T07:47:53.969Z,25.30
2023-06-22T07:50:20.720Z,24.70
2023-06-22T07:52:48.906Z,25.30
2023-06-22T07:55:15.726Z,26.00
2023-06-22T07:57:43.249Z,26.00
2023-06-22T08:00:18.086Z,26.30
2023-06-22T08:02:47.544Z,26.40
2023-06-22T08:07:48.357Z,25.40
2023-06-22T08:10:15.256Z,26.10
2023-06-22T08:12:42.450Z,26.10
2023-06-22T08:15:10.688Z,26.60
2023-06-22T08:17:38.892Z,26.60
2023-06-22T08:20:10.908Z,26.60
2023-06-22T08:22:37.925Z,25.40
2023-06-22T08:25:05.254Z,25.80
2023-06-22T08:27:33.285Z,25.70
2023-06-22T08:30:01.204Z,26.40
2023-06-22T08:32:33.727Z,26.50
2023-06-22T08:35:01.035Z,26.50
2023-06-22T08:37:32.062Z,26.40
2023-06-22T08:40:02.145Z,26.10
2023-06-22T08:42:29.088Z,26.20
2023-06-22T08:44:56.490Z,26.60
2023-06-22T08:47:24.226Z,26.40
2023-06-22T08:49:51.264Z,26.30
2023-06-22T08:52:20.920Z,26.40
2023-06-22T08:54:48.453Z,26.20
2023-06-22T08:57:15.224Z,25.60
2023-06-22T08:59:41.955Z,25.70
2023-06-22T09:02:09.008Z,26.20
2023-06-22T09:04:36.124Z,26.30
2023-06-22T09:07:04.447Z,26.20
2023-06-22T09:09:31.544Z,26.10
2023-06-22T09:11:59.318Z,26.50
2023-06-22T09:14:26.089Z,26.30
2023-06-22T09:16:52.806Z,26.30
2023-06-22T09:19:19.542Z,25.70
2023-06-22T09:21:46.250Z,26.10
2023-06-22T09:24:13.008Z,26.00
2023-06-22T09:26:39.748Z,26.00
2023-06-22T09:29:07.314Z,26.40
2023-06-22T09:31:34.180Z,26.90
2023-06-22T09:34:01.118Z,26.20
2023-06-22T09:36:28.880Z,26.20
2023-06-22T09:38:59.873Z,26.30
2023-06-22T09:41:26.945Z,26.10
2023-06-22T09:43:56.774Z,25.40
2023-06-22T09:46:26.291Z,26.20
2023-06-22T09:48:53.273Z,26.30
2023-06-22T09:51:22.290Z,26.60
2023-06-22T09:53:49.336Z,26.30
2023-06-22T09:56:16.352Z,25.80
2023-06-22T09:58:47.787Z,26.20
2023-06-22T10:01:17.993Z,26.50
2023-06-22T10:03:45.022Z,26.60
2023-06-22T10:06:11.975Z,26.40
2023-06-22T10:08:39.023Z,26.40
2023-06-22T10:11:06.780Z,26.40
2023-06-22T10:13:33.685Z,26.40
2023-06-22T10:16:00.450Z,26.30
2023-06-22T10:18:27.276Z,25.90
2023-06-22T10:20:54.057Z,25.90
2023-06-22T10:23:21.571Z,26.10
2023-06-22T10:25:48.501Z,26.30
2023-06-22T10:28:15.723Z,26.50
2023-06-22T10:30:43.059Z,26.20
2023-06-22T10:33:13.389Z,25.90
2023-06-22T10:35:40.236Z,26.30
2023-06-22T10:38:07.810Z,25.70
2023-06-22T10:40:34.822Z,25.60
2023-06-22T10:43:01.643Z,25.90
2023-06-22T10:45:31.341Z,26.00
2023-06-22T10:47:58.562Z,26.20
2023-06-22T10:50:26.597Z,26.20
2023-06-22T10:52:53.479Z,26.20
2023-06-22T10:55:20.302Z,26.40
2023-06-22T10:57:48.279Z,26.20
2023-06-22T11:00:16.926Z,26.40
2023-06-22T11:02:44.458Z,26.10
2023-06-22T11:05:11.408Z,26.30
2023-06-22T11:10:14.341Z,25.70
2023-06-22T11:12:41.235Z,25.80
2023-06-22T11:15:09.015Z,25.70
2023-06-22T11:17:36.302Z,25.80
2023-06-22T11:20:06.787Z,25.70
2023-06-22T11:22:34.715Z,26.00
2023-06-22T11:25:01.653Z,26.00
2023-06-22T11:27:29.252Z,25.70
2023-06-22T11:29:57.068Z,25.30
2023-06-22T11:32:24.270Z,25.70
2023-06-22T11:34:51.526Z,25.60
2023-06-22T11:37:18.419Z,26.00
2023-06-22T11:39:53.270Z,25.70
2023-06-22T11:42:26.349Z,25.40
2023-06-22T11:44:53.315Z,25.50
2023-06-22T11:47:20.364Z,25.70
2023-06-22T11:49:47.421Z,25.70
2023-06-22T11:52:14.121Z,25.50
2023-06-22T11:54:40.857Z,25.60
2023-06-22T11:57:07.663Z,25.70
2023-06-22T11:59:34.428Z,25.50
2023-06-22T12:02:01.609Z,25.60
2023-06-22T12:04:28.619Z,25.80
2023-06-22T12:06:55.382Z,25.40
2023-06-22T12:09:22.183Z,25.50
2023-06-22T12:11:48.927Z,25.50
2023-06-22T12:14:15.864Z,25.50
2023-06-22T12:16:43.236Z,25.20
2023-06-22T12:19:10.146Z,25.30
2023-06-22T12:21:38.190Z,25.30
2023-06-22T12:24:05.117Z,25.70
2023-06-22T12:26:31.942Z,25.50
2023-06-22T12:28:58.686Z,25.10
2023-06-22T12:31:25.561Z,25.50
2023-06-22T12:33:52.305Z,25.30
2023-06-22T12:36:19.028Z,25.60
2023-06-22T12:38:45.803Z,25.40
2023-06-22T12:41:12.553Z,25.50
2023-06-22T12:43:39.386Z,25.00
2023-06-22T12:46:07.120Z,25.30
2023-06-22T12:48:33.846Z,25.10
2023-06-22T12:51:00.893Z,25.10
2023-06-22T12:53:28.532Z,24.80
2023-06-22T12:55:55.706Z,24.80
2023-06-22T12:58:22.475Z,25.10
2023-06-22T13:00:50.191Z,25.00
2023-06-22T13:03:17.060Z,24.80
2023-06-22T13:05:43.966Z,24.90
2023-06-22T13:08:13.235Z,24.90
2023-06-22T13:10:41.309Z,24.80
2023-06-22T13:13:08.017Z,24.60
2023-06-22T13:15:35.006Z,24.50
2023-06-22T13:18:01.937Z,24.70
2023-06-22T13:20:30.113Z,24.60
2023-06-22T13:22:57.918Z,24.10
2023-06-22T13:25:27.791Z,24.30
2023-06-22T13:27:55.007Z,24.40
2023-06-22T13:30:21.812Z,24.60
2023-06-22T13:32:48.748Z,24.50
2023-06-22T13:35:15.730Z,24.30
2023-06-22T13:37:42.489Z,24.30
2023-06-22T13:40:10.579Z,24.60
2023-06-22T13:42:37.751Z,24.70
2023-06-22T13:45:05.891Z,25.10
2023-06-22T13:47:32.778Z,24.70
2023-06-22T13:50:00.335Z,24.80
2023-06-22T13:52:27.394Z,24.90
2023-06-22T13:54:54.395Z,24.70
2023-06-22T13:57:22.541Z,24.20
2023-06-22T13:59:50.288Z,24.30
2023-06-22T14:02:17.119Z,24.10
2023-06-22T14:04:43.873Z,24.40
2023-06-22T14:07:10.748Z,24.40
2023-06-22T14:09:37.569Z,24.50
2023-06-22T14:12:06.062Z,23.90
2023-06-22T14:14:36.175Z,23.00
2023-06-22T14:17:02.985Z,22.60
2023-06-22T14:19:29.721Z,22.40
2023-06-22T14:21:57.847Z,22.40
2023-06-22T14:24:26.857Z,22.50
2023-06-22T14:26:56.148Z,22.40
2023-06-22T14:29:23.528Z,22.30
2023-06-22T14:31:50.899Z,22.30
2023-06-22T14:34:17.763Z,22.40
2023-06-22T14:36:45.753Z,22.40
2023-06-22T14:39:12.480Z,22.50
2023-06-22T14:41:39.275Z,21.90
2023-06-22T14:44:06.080Z,22.20
2023-06-22T14:46:33.015Z,22.70
2023-06-22T14:48:59.900Z,22.50
2023-06-22T14:51:26.696Z,23.10
2023-06-22T14:53:53.612Z,23.00
2023-06-22T14:56:21.576Z,22.90
2023-06-22T14:58:48.452Z,22.90
2023-06-22T15:01:17.852Z,22.80
2023-06-22T15:03:46.775Z,22.50
2023-06-22T15:06:13.750Z,22.40
2023-06-22T15:08:43.070Z,22.70
2023-06-22T15:11:10.413Z,22.90
2023-06-22T15:13:40.458Z,23.10
2023-06-22T15:16:07.632Z,23.20
2023-06-22T15:18:36.263Z,23.10
2023-06-22T15:21:04.215Z,23.00
2023-06-22T15:23:31.727Z,23.20
2023-06-22T15:25:59.510Z,23.40
2023-06-22T15:28:26.456Z,23.40
2023-06-22T15:30:53.658Z,22.60
2023-06-22T15:33:20.554Z,23.10
2023-06-22T15:35:47.501Z,22.90
2023-06-22T15:38:14.379Z,23.00
2023-06-22T15:40:41.145Z,22.30
2023-06-22T15:43:11.681Z,22.70
2023-06-22T15:45:38.506Z,22.70
2023-06-22T15:48:05.493Z,22.70
2023-06-22T15:50:32.544Z,22.80
2023-06-22T15:52:59.544Z,23.10
2023-06-22T15:55:27.643Z,22.80
2023-06-22T15:57:54.377Z,22.80
2023-06-22T16:00:22.210Z,22.90
2023-06-22T16:02:49.554Z,23.00
2023-06-22T16:05:16.442Z,23.00
2023-06-22T16:07:43.245Z,23.10
2023-06-22T16:10:10.743Z,22.50
2023-06-22T16:12:43.671Z,22.60
2023-06-22T16:15:11.102Z,22.00
2023-06-22T16:17:38.768Z,22.50
2023-06-22T16:20:07.848Z,22.70
2023-06-22T16:22:35.085Z,22.40
2023-06-22T16:25:01.907Z,22.30
2023-06-22T16:27:30.581Z,22.40
2023-06-22T16:29:57.409Z,22.30
2023-06-22T16:32:24.221Z,22.20
2023-06-22T16:34:50.988Z,22.20
2023-06-22T16:37:19.935Z,22.40
2023-06-22T16:39:46.796Z,22.40
2023-06-22T16:42:13.562Z,22.50
2023-06-22T16:44:40.385Z,22.50
2023-06-22T16:47:07.414Z,22.40
2023-06-22T16:49:34.601Z,22.50
2023-06-22T16:52:01.391Z,22.40
2023-06-22T16:54:30.680Z,22.30
2023-06-22T16:57:01.387Z,22.40
2023-06-22T16:59:28.509Z,22.60
2023-06-22T17:01:57.687Z,23.00
2023-06-22T17:04:26.396Z,23.10
2023-06-22T17:07:17.532Z,23.20
2023-06-22T17:09:47.653Z,23.40
2023-06-22T17:12:14.708Z,23.50
2023-06-22T17:14:45.506Z,23.50
2023-06-22T17:17:14.453Z,23.50
2023-06-22T17:19:41.264Z,23.60
2023-06-22T17:22:08.091Z,23.70
2023-06-22T17:24:36.370Z,23.30
2023-06-22T17:27:03.351Z,23.20
2023-06-22T17:29:32.698Z,23.00
2023-06-22T17:31:59.901Z,22.90
2023-06-22T17:34:30.792Z,22.60
2023-06-22T17:36:59.396Z,22.40
2023-06-22T17:39:29.516Z,22.50
2023-06-22T17:41:56.422Z,22.40
2023-06-22T17:44:27.979Z,22.20
2023-06-22T17:46:56.902Z,22.10
2023-06-22T17:49:33.085Z,22.20
2023-06-22T17:52:01.485Z,22.20
2023-06-22T17:54:39.777Z,21.90
2023-06-22T17:57:32.056Z,22.00
2023-06-22T17:59:58.735Z,22.00
2023-06-22T18:02:26.893Z,21.70
2023-06-22T18:05:14.448Z,22.00
2023-06-22T18:07:41.709Z,21.70
2023-06-22T18:10:10.956Z,22.20
2023-06-22T18:12:39.357Z,22.70
2023-06-22T18:15:07.439Z,22.70
2023-06-22T18:17:34.457Z,22.80
2023-06-22T18:20:03.438Z,22.90
2023-06-22T18:22:30.499Z,23.00
2023-06-22T18:24:58.224Z,22.80
2023-06-22T18:27:26.285Z,22.80
2023-06-22T18:29:56.535Z,22.70
2023-06-22T18:32:23.306Z,22.30
2023-06-22T18:34:52.437Z,21.70
2023-06-22T18:37:20.131Z,22.50
2023-06-22T18:39:50.352Z,22.50
2023-06-22T18:42:17.382Z,22.60
2023-06-22T18:44:44.230Z,22.50
2023-06-22T18:47:12.052Z,22.50
2023-06-22T18:49:42.779Z,21.90
2023-06-22T18:52:14.971Z,21.50
2023-06-22T18:54:46.879Z,21.40
2023-06-22T18:57:14.723Z,21.60
2023-06-22T18:59:46.366Z,21.30
2023-06-22T19:02:17.159Z,22.00
2023-06-22T19:04:45.716Z,22.40
2023-06-22T19:07:15.343Z,22.70
2023-06-22T19:09:42.276Z,23.00
2023-06-22T19:12:23.551Z,23.10
2023-06-22T19:15:08.996Z,23.00
2023-06-22T19:17:35.848Z,23.20
2023-06-22T19:20:07.382Z,22.50
2023-06-22T19:22:47.253Z,22.50
2023-06-22T19:25:36.420Z,22.50
2023-06-22T19:28:04.836Z,22.00
2023-06-22T19:30:32.722Z,22.30
2023-06-22T19:33:00.807Z,22.40
2023-06-22T19:35:28.342Z,22.00
2023-06-22T19:37:55.231Z,21.60
2023-06-22T19:40:22.755Z,22.00
2023-06-22T19:42:54.796Z,22.50
2023-06-22T19:45:21.669Z,22.30
2023-06-22T19:47:49.326Z,22.20
2023-06-22T19:50:17.868Z,21.90
2023-06-22T19:52:48.326Z,21.20
2023-06-22T19:55:15.330Z,21.30
2023-06-22T19:57:47.502Z,21.70
2023-06-22T20:00:20.843Z,21.30
2023-06-22T20:02:53.539Z,21.00
2023-06-22T20:05:21.684Z,21.20
2023-06-22T20:07:48.575Z,21.50
2023-06-22T20:10:20.430Z,21.50
2023-06-22T20:12:51.748Z,21.70
2023-06-22T20:15:27.067Z,22.00
2023-06-22T20:18:00.585Z,21.30
2023-06-22T20:20:34.326Z,21.30
2023-06-22T20:23:02.573Z,21.20
2023-06-22T20:25:32.799Z,21.20
2023-06-22T20:28:04.718Z,21.10
2023-06-22T20:30:35.140Z,22.00
2023-06-22T20:33:05.475Z,21.50
2023-06-22T20:35:33.942Z,20.70
2023-06-22T20:38:00.764Z,20.40
2023-06-22T20:40:28.900Z,20.20
2023-06-22T20:42:56.410Z,20.50
2023-06-22T20:45:23.350Z,20.20
2023-06-22T20:47:50.078Z,20.00
2023-06-22T20:50:30.906Z,20.20
2023-06-22T20:53:08.118Z,20.80
2023-06-22T20:55:39.050Z,19.80
2023-06-22T20:58:06.979Z,19.60
2023-06-22T21:00:35.958Z,19.40
2023-06-22T21:03:09.618Z,19.70
2023-06-22T21:05:36.398Z,20.20
2023-06-22T21:08:03.129Z,20.10
2023-06-22T21:10:29.919Z,20.20
2023-06-22T21:12:56.659Z,20.00
2023-06-22T21:15:23.385Z,20.50
2023-06-22T21:17:50.200Z,20.50
2023-06-22T21:20:17.059Z,20.00
2023-06-22T21:22:43.809Z,20.30
2023-06-22T21:25:15.270Z,20.50
2023-06-22T21:27:44.338Z,20.50
2023-06-22T21:30:13.083Z,20.50
2023-06-22T21:32:41.503Z,20.30
2023-06-22T21:35:13.148Z,19.80
2023-06-22T21:37:40.035Z,19.80
2023-06-22T21:40:07.838Z,20.00
2023-06-22T21:42:34.849Z,19.40
2023-06-22T21:45:01.531Z,19.50
2023-06-22T21:47:28.706Z,19.40
2023-06-22T21:49:56.139Z,19.20
2023-06-22T21:52:23.226Z,19.40
2023-06-22T21:54:49.914Z,19.80
2023-06-22T21:57:16.657Z,20.10
2023-06-22T21:59:43.383Z,19.50
2023-06-22T22:02:10.218Z,19.60
2023-06-22T22:04:38.407Z,19.80
2023-06-22T22:07:06.099Z,20.30
2023-06-22T22:09:32.990Z,20.30
2023-06-22T22:12:00.799Z,20.30
2023-06-22T22:14:27.533Z,19.50
2023-06-22T22:16:54.553Z,19.30
2023-06-22T22:19:21.339Z,19.70
2023-06-22T22:21:48.714Z,19.60
2023-06-22T22:24:15.473Z,19.60
2023-06-22T22:26:42.267Z,19.40
2023-06-22T22:29:09.013Z,19.30
2023-06-22T22:31:39.297Z,19.60
2023-06-22T22:34:07.390Z,19.80
2023-06-22T22:36:34.601Z,19.80
2023-06-22T22:39:01.877Z,19.90
2023-06-22T22:41:29.014Z,19.90
2023-06-22T22:43:57.866Z,19.80
2023-06-22T22:46:24.909Z,19.50
2023-06-22T22:48:51.703Z,19.40
2023-06-22T22:51:18.738Z,19.30
2023-06-22T22:53:45.809Z,19.50
2023-06-22T22:56:13.232Z,19.50
2023-06-22T22:58:39.924Z,19.70
2023-06-22T23:01:06.772Z,19.50
2023-06-22T23:03:34.236Z,19.70
2023-06-22T23:06:01.331Z,19.90
2023-06-22T23:08:28.218Z,19.90
2023-06-22T23:10:55.322Z,19.90
2023-06-22T23:13:22.044Z,19.90
2023-06-22T23:15:51.630Z,19.80
2023-06-22T23:18:19.375Z,19.90
2023-06-22T23:20:46.327Z,19.80
2023-06-22T23:23:13.034Z,20.00
2023-06-22T23:25:39.817Z,19.90
2023-06-22T23:28:06.927Z,19.50
2023-06-22T23:30:35.544Z,19.50
2023-06-22T23:33:02.380Z,19.70
2023-06-22T23:35:29.509Z,19.50
2023-06-22T23:37:56.451Z,19.70
2023-06-22T23:40:23.188Z,19.80
2023-06-22T23:42:50.262Z,19.70
2023-06-22T23:45:18.300Z,20.30
2023-06-22T23:47:46.832Z,20.30
2023-06-22T23:50:15.634Z,19.90
2023-06-22T23:52:50.102Z,19.60
2023-06-22T23:55:24.484Z,19.80
2023-06-22T23:57:57.582Z,19.50
